^^
Station Historical Data
Daily Summary for December 08, 2017 Units:  English    Metric   Both
« Previous Day
Next Day »
Daily Weekly Monthly Yearly Custom
  High: Low: Average:
Temperature: 101.3 °F 71.8 °F 84.8 °F
Dew Point: 58.1 °F 41.4 °F 48.2 °F
Humidity: 41% 13% 30%
Wind Speed: 25.1mph 0.0mph 3.3mph
Wind Gust: 31.0mph - -
Wind- - South
Pressure: 29.81 in 29.65 in -
Precipitation: 0.00 in    
Historical Graphs
 
 
Tabular Data for December 08, 2017
Time Temperature Dew Point Pressure Wind Wind Speed Wind Gust Humidity Rainfall Rate (Hourly) solar Conditions
00:49 81.3 °F 51.8 °F 29.75 in Calm     36% 0.00 in 0.0 W/m2
00:54 81.0 °F 51.4 °F 29.75 in Calm     36% 0.00 in 0.0 W/m2
01:04 80.2 °F 51.6 °F 29.75 in Calm     37% 0.00 in 0.0 W/m2
01:09 79.9 °F 51.3 °F 29.75 in Calm     37% 0.00 in 0.0 W/m2
01:15 79.3 °F 50.7 °F 29.75 in Calm     37% 0.00 in 0.0 W/m2
01:20 79.0 °F 50.5 °F 29.75 in Calm     37% 0.00 in 0.0 W/m2
01:25 78.6 °F 50.9 °F 29.75 in Calm     38% 0.00 in 0.0 W/m2
01:35 77.9 °F 50.9 °F 29.75 in Calm     39% 0.00 in 0.0 W/m2
01:40 77.5 °F 51.3 °F 29.75 in Calm     40% 0.00 in 0.0 W/m2
01:46 77.4 °F 51.1 °F 29.75 in Calm     40% 0.00 in 0.0 W/m2
01:51 77.4 °F 50.5 °F 29.75 in Calm     39% 0.00 in 0.0 W/m2
02:01 77.2 °F 49.6 °F 29.75 in Calm     38% 0.00 in 0.0 W/m2
02:07 77.2 °F 49.6 °F 29.75 in Calm     38% 0.00 in 0.0 W/m2
02:12 77.4 °F 49.1 °F 29.75 in Calm     37% 0.00 in 0.0 W/m2
02:17 77.4 °F 49.8 °F 29.75 in Calm     38% 0.00 in 0.0 W/m2
02:23 77.2 °F 49.6 °F 29.75 in Calm     38% 0.00 in 0.0 W/m2
02:33 76.8 °F 49.3 °F 29.75 in Calm     38% 0.00 in 0.0 W/m2
02:38 76.5 °F 48.2 °F 29.75 in Calm     37% 0.00 in 0.0 W/m2
02:43 76.3 °F 48.7 °F 29.75 in Calm     38% 0.00 in 0.0 W/m2
02:48 75.7 °F 48.4 °F 29.74 in Calm     38% 0.00 in 0.0 W/m2
02:53 75.0 °F 47.7 °F 29.74 in Calm     38% 0.00 in 0.0 W/m2
02:58 74.7 °F 47.3 °F 29.74 in Calm     38% 0.00 in 0.0 W/m2
03:03 74.8 °F 48.2 °F 29.74 in Calm     39% 0.00 in 0.0 W/m2
03:09 75.0 °F 47.7 °F 29.74 in Calm     38% 0.00 in 0.0 W/m2
03:20 75.6 °F 48.9 °F 29.74 in Calm     39% 0.00 in 0.0 W/m2
03:25 75.9 °F 49.1 °F 29.74 in Calm     39% 0.00 in 0.0 W/m2
03:40 75.9 °F 48.6 °F 29.74 in Calm     38% 0.00 in 0.0 W/m2
03:46 75.7 °F 49.1 °F 29.74 in Calm     39% 0.00 in 0.0 W/m2
03:52 75.7 °F 49.1 °F 29.74 in Calm     39% 0.00 in 0.0 W/m2
03:57 75.6 °F 48.9 °F 29.74 in Calm     39% 0.00 in 0.0 W/m2
04:02 75.4 °F 48.7 °F 29.73 in Calm     39% 0.00 in 0.0 W/m2
04:08 75.0 °F 48.4 °F 29.73 in Calm     39% 0.00 in 0.0 W/m2
04:17 74.8 °F 48.9 °F 29.73 in Calm     40% 0.00 in 0.0 W/m2
04:22 74.7 °F 48.7 °F 29.74 in Calm     40% 0.00 in 0.0 W/m2
04:28 74.3 °F 49.1 °F 29.74 in Calm     41% 0.00 in 0.0 W/m2
04:33 74.1 °F 48.9 °F 29.73 in Calm     41% 0.00 in 0.0 W/m2
04:42 73.8 °F 47.3 °F 29.73 in Calm     39% 0.00 in 0.0 W/m2
04:48 73.6 °F 47.8 °F 29.74 in Calm     40% 0.00 in 0.0 W/m2
04:53 73.9 °F 46.0 °F 29.74 in Calm     37% 0.00 in 0.0 W/m2
04:58 74.3 °F 46.4 °F 29.74 in Calm     37% 0.00 in 0.0 W/m2
05:03 73.9 °F 46.0 °F 29.74 in Calm     37% 0.00 in 0.0 W/m2
05:08 73.6 °F 47.1 °F 29.74 in Calm     39% 0.00 in 0.0 W/m2
05:19 72.7 °F 46.2 °F 29.75 in Calm     39% 0.00 in 0.0 W/m2
05:24 72.5 °F 46.2 °F 29.75 in Calm     39% 0.00 in 0.0 W/m2
05:29 72.7 °F 45.7 °F 29.75 in Calm     38% 0.00 in 0.0 W/m2
05:34 72.5 °F 44.8 °F 29.75 in Calm     37% 0.00 in 0.0 W/m2
05:39 72.3 °F 44.6 °F 29.75 in Calm     37% 0.00 in 0.0 W/m2
05:50 71.8 °F 44.1 °F 29.76 in Calm     37% 0.00 in 5.0 W/m2
05:55 71.8 °F 44.8 °F 29.76 in Calm     38% 0.00 in 9.0 W/m2
06:00 72.1 °F 45.1 °F 29.76 in Calm     38% 0.00 in 12.0 W/m2
06:05 72.5 °F 44.8 °F 29.76 in Calm     37% 0.00 in 16.0 W/m2
06:11 73.0 °F 45.1 °F 29.76 in Calm     37% 0.00 in 21.0 W/m2
06:21 75.6 °F 45.1 °F 29.77 in Calm     34% 0.00 in 44.0 W/m2
06:31 76.5 °F 45.1 °F 29.77 in Calm     33% 0.00 in 67.0 W/m2
06:36 76.6 °F 46.2 °F 29.77 in Calm     34% 0.00 in 83.0 W/m2
06:46 77.2 °F 48.2 °F 29.77 in Calm     36% 0.00 in 118.0 W/m2
06:51 77.5 °F 48.6 °F 29.78 in Calm     36% 0.00 in 137.0 W/m2
07:01 78.6 °F 47.8 °F 29.78 in Calm     34% 0.00 in 181.0 W/m2
07:07 79.2 °F 48.4 °F 29.78 in Calm     34% 0.00 in 200.0 W/m2
07:20 80.1 °F 48.4 °F 29.78 in Calm     33% 0.00 in 236.0 W/m2
07:43 82.6 °F 49.8 °F 29.79 in NW 6.0 mph 6.0 mph 32% 0.00 in 299.0 W/m2
07:54 84.2 °F 49.5 °F 29.79 in Calm     30% 0.00 in 350.0 W/m2
08:13 85.8 °F 48.9 °F 29.79 in NW 2.0 mph 6.0 mph 28% 0.00 in 399.0 W/m2
08:44 88.2 °F 50.0 °F 29.79 in Calm   7.0 mph 27% 0.00 in 499.0 W/m2
08:58 88.7 °F 50.4 °F 29.79 in NNW 4.9 mph 7.0 mph 27% 0.00 in 554.0 W/m2
09:14 89.2 °F 50.9 °F 29.79 in Calm   9.0 mph 27% 0.00 in 598.0 W/m2
09:29 89.2 °F 50.9 °F 29.79 in North 6.9 mph 12.0 mph 27% 0.00 in 636.0 W/m2
09:44 89.6 °F 51.3 °F 29.79 in North 11.0 mph 14.0 mph 27% 0.00 in 677.0 W/m2
10:08 91.2 °F 50.5 °F 29.79 in NNW 6.9 mph 14.0 mph 25% 0.00 in 747.0 W/m2
10:18 91.2 °F 50.5 °F 29.79 in North 6.9 mph 13.0 mph 25% 0.00 in 775.0 W/m2
10:28 91.8 °F 49.8 °F 29.79 in NNW 8.9 mph 17.0 mph 24% 0.00 in 796.0 W/m2
11:04 94.3 °F 48.4 °F 29.79 in NNW 8.1 mph 11.0 mph 21% 0.00 in 867.0 W/m2
11:14 94.3 °F 47.1 °F 29.79 in North 8.1 mph 16.0 mph 20% 0.00 in 882.0 W/m2
11:45 95.2 °F 46.4 °F 29.78 in North 4.9 mph 17.0 mph 19% 0.00 in 925.0 W/m2
12:00 96.1 °F 45.7 °F 29.78 in North 0.9 mph 10.0 mph 18% 0.00 in 939.0 W/m2
12:31 95.4 °F 45.1 °F 29.77 in Calm     18% 0.00 in 956.0 W/m2
13:01 97.2 °F 45.1 °F 29.76 in NW 6.9 mph 8.0 mph 17% 0.00 in 977.0 W/m2
13:31 98.2 °F 44.4 °F 29.75 in Calm     16% 0.00 in 983.0 W/m2
13:46 97.2 °F 45.1 °F 29.74 in SW 4.0 mph 4.0 mph 17% 0.00 in 972.0 W/m2
13:58 99.9 °F 43.9 °F 29.74 in WSW 6.0 mph 8.0 mph 15% 0.00 in 998.0 W/m2
14:13 99.1 °F 43.3 °F 29.73 in West 4.9 mph 11.0 mph 15% 0.00 in 937.0 W/m2
14:28 99.3 °F 43.5 °F 29.73 in Calm     15% 0.00 in 745.0 W/m2
14:42 99.1 °F 43.3 °F 29.72 in Calm     15% 0.00 in 907.0 W/m2
14:52 99.1 °F 43.3 °F 29.72 in Calm     15% 0.00 in 854.0 W/m2
15:17 99.7 °F 43.9 °F 29.70 in Calm   1.0 mph 15% 0.00 in 116.0 W/m2
15:25 99.0 °F 43.2 °F 29.70 in West 2.9 mph 4.0 mph 15% 0.00 in 831.0 W/m2
15:31 99.7 °F 43.9 °F 29.69 in WNW 13.0 mph 15.0 mph 15% 0.00 in 823.0 W/m2
15:38 100.6 °F 42.8 °F 29.69 in Calm   8.0 mph 14% 0.00 in 534.0 W/m2
15:44 100.4 °F 42.6 °F 29.68 in Calm   1.0 mph 14% 0.00 in 803.0 W/m2
15:51 100.6 °F 42.8 °F 29.68 in WNW 0.9 mph 3.0 mph 14% 0.00 in 700.0 W/m2
16:03 99.5 °F 41.9 °F 29.68 in WNW 0.9 mph 4.0 mph 14% 0.00 in 132.0 W/m2
16:13 100.0 °F 42.3 °F 29.67 in Calm     14% 0.00 in 654.0 W/m2
16:26 101.3 °F 41.4 °F 29.67 in WNW 4.0 mph 10.0 mph 13% 0.00 in 633.0 W/m2
16:39 100.6 °F 42.8 °F 29.66 in West 8.1 mph 8.1 mph 14% 0.00 in 608.0 W/m2
16:49 100.2 °F 42.4 °F 29.66 in SW 8.1 mph 9.0 mph 14% 0.00 in 615.0 W/m2
17:00 100.8 °F 42.8 °F 29.65 in SW 10.1 mph 13.0 mph 14% 0.00 in 603.0 W/m2
17:12 100.0 °F 42.3 °F 29.65 in Calm     14% 0.00 in 557.0 W/m2
17:27 100.2 °F 44.2 °F 29.66 in ENE 8.9 mph 23.0 mph 15% 0.00 in 350.0 W/m2
17:40 95.7 °F 48.2 °F 29.68 in SE 25.1 mph 31.0 mph 20% 0.00 in 93.0 W/m2
18:00 88.0 °F 56.1 °F 29.69 in ESE 21.0 mph 25.0 mph 34% 0.00 in 51.0 W/m2
18:11 88.2 °F 53.8 °F 29.70 in East 10.1 mph 17.0 mph 31% 0.00 in 178.0 W/m2
18:25 88.5 °F 58.1 °F 29.70 in ESE 16.1 mph 18.0 mph 36% 0.00 in 98.0 W/m2
18:35 88.7 °F 55.9 °F 29.69 in East 10.1 mph 15.0 mph 33% 0.00 in 74.0 W/m2
18:46 90.7 °F 48.9 °F 29.69 in East 8.1 mph 12.0 mph 24% 0.00 in 70.0 W/m2
19:00 91.6 °F 46.0 °F 29.70 in East 6.0 mph 13.0 mph 21% 0.00 in 51.0 W/m2
19:10 91.9 °F 45.1 °F 29.70 in ESE 4.9 mph 9.0 mph 20% 0.00 in 65.0 W/m2
19:22 92.7 °F 43.0 °F 29.70 in SSE 6.9 mph 15.0 mph 18% 0.00 in 49.0 W/m2
19:38 92.7 °F 44.4 °F 29.71 in SE 6.0 mph 8.0 mph 19% 0.00 in 23.0 W/m2
19:53 91.8 °F 45.0 °F 29.72 in SE 6.0 mph 6.0 mph 20% 0.00 in 0.0 W/m2
20:08 90.5 °F 47.7 °F 29.73 in SSE 6.9 mph 9.0 mph 23% 0.00 in 0.0 W/m2
20:22 90.3 °F 47.5 °F 29.73 in SSE 10.1 mph 11.0 mph 23% 0.00 in 0.0 W/m2
20:51 89.1 °F 49.6 °F 29.74 in SSE 6.0 mph 6.0 mph 26% 0.00 in 0.0 W/m2
21:12 88.7 °F 51.4 °F 29.75 in SSE 2.9 mph 5.0 mph 28% 0.00 in 0.0 W/m2
21:20 88.9 °F 50.5 °F 29.77 in SSE 6.9 mph 7.0 mph 27% 0.00 in 0.0 W/m2
21:29 88.9 °F 52.5 °F 29.78 in SSE 2.9 mph 5.0 mph 29% 0.00 in 0.0 W/m2
21:34 88.7 °F 53.2 °F 29.79 in SSE 2.9 mph 6.0 mph 30% 0.00 in 0.0 W/m2
21:39 88.3 °F 54.7 °F 29.79 in SSE 8.1 mph 8.1 mph 32% 0.00 in 0.0 W/m2
21:44 88.0 °F 54.5 °F 29.80 in SSE 6.0 mph 8.0 mph 32% 0.00 in 0.0 W/m2
21:49 87.6 °F 55.0 °F 29.80 in SE 8.1 mph 10.0 mph 33% 0.00 in 0.0 W/m2
21:54 87.3 °F 54.7 °F 29.80 in SE 4.9 mph 10.0 mph 33% 0.00 in 0.0 W/m2
21:59 87.3 °F 54.7 °F 29.80 in SE 8.9 mph 11.0 mph 33% 0.00 in 0.0 W/m2
22:04 87.4 °F 52.2 °F 29.81 in SE 8.1 mph 11.0 mph 30% 0.00 in 0.0 W/m2
22:14 87.6 °F 51.4 °F 29.80 in SE 4.9 mph 8.0 mph 29% 0.00 in 0.0 W/m2
22:24 87.3 °F 51.1 °F 29.80 in SE 4.0 mph 5.0 mph 29% 0.00 in 0.0 W/m2
22:29 87.1 °F 50.9 °F 29.80 in SE 4.9 mph 6.0 mph 29% 0.00 in 0.0 W/m2
22:34 86.7 °F 50.7 °F 29.80 in SE 8.1 mph 11.0 mph 29% 0.00 in 0.0 W/m2
22:40 86.5 °F 50.5 °F 29.80 in SSE 6.9 mph 8.0 mph 29% 0.00 in 0.0 W/m2
22:45 86.2 °F 49.3 °F 29.80 in SSE 8.1 mph 10.0 mph 28% 0.00 in 0.0 W/m2
22:54 85.5 °F 49.6 °F 29.80 in South 10.1 mph 14.0 mph 29% 0.00 in 0.0 W/m2
22:59 85.3 °F 50.4 °F 29.80 in South 8.1 mph 11.0 mph 30% 0.00 in 0.0 W/m2
23:04 84.9 °F 50.9 °F 29.80 in South 10.1 mph 12.0 mph 31% 0.00 in 0.0 W/m2
23:09 84.7 °F 50.7 °F 29.80 in South 6.0 mph 10.0 mph 31% 0.00 in 0.0 W/m2
23:14 84.6 °F 50.5 °F 29.80 in South 6.0 mph 8.0 mph 31% 0.00 in 0.0 W/m2
23:20 84.4 °F 49.6 °F 29.80 in South 4.9 mph 8.0 mph 30% 0.00 in 0.0 W/m2
23:30 84.0 °F 50.2 °F 29.80 in South 4.9 mph 7.0 mph 31% 0.00 in 0.0 W/m2
23:35 83.7 °F 50.7 °F 29.80 in South 6.0 mph 6.0 mph 32% 0.00 in 0.0 W/m2
23:40 83.5 °F 50.5 °F 29.80 in South 4.9 mph 6.0 mph 32% 0.00 in 0.0 W/m2
23:50 83.5 °F 49.6 °F 29.80 in South 6.9 mph 7.0 mph 31% 0.00 in 0.0 W/m2
Canyon Roadhouse, Fishriver Canyon, Namibia
Compliments of Weather Underground - 2.25 mb